Time;durP1;ratioP1;P1;durP2;ratioP2;P2;SDS_P1;SDS_P2;PMS_P1;PMS_P2;Temp;Humidity;BMP_temperature;BMP_pressure;BME280_temperature;BME280_humidity;BME280_pressure;Samples;Min_cycle;Max_cycle;Signal;HPM_P1;HPM_P2
2021/01/31 00:02:55;;;;;;;9.90;5.70;;;;;;;-5.13;75.43;98266.83;510465;1102;115449;-59
2021/01/31 00:13:01;;;;;;;11.20;6.60;;;;;;;-5.29;75.98;98272.28;510669;1101;115194;-58
2021/01/31 00:23:06;;;;;;;9.93;4.40;;;;;;;-5.34;75.54;98286.87;510500;1102;115160;-60
2021/01/31 00:33:12;;;;;;;;;;;;;;;-5.32;75.78;98299.65;510602;1102;114298;-64
2021/01/31 00:43:17;;;;;;;11.63;5.37;;;;;;;-5.33;76.91;98308.20;510170;1102;101091;-58
2021/01/31 00:53:21;;;;;;;11.60;6.42;;;;;;;-5.35;76.26;98314.20;510382;1100;115396;-62
2021/01/31 01:03:31;;;;;;;11.17;6.83;;;;;;;-5.37;76.26;98310.83;510480;1102;114468;-63
2021/01/31 01:13:34;;;;;;;11.80;7.63;;;;;;;-5.35;76.70;98306.52;510644;1102;114582;-63
2021/01/31 01:23:41;;;;;;;13.13;7.20;;;;;;;-5.36;76.76;98304.84;510497;1102;114653;-63
2021/01/31 01:33:46;;;;;;;11.43;6.07;;;;;;;-5.34;76.45;98312.47;510285;1102;114435;-62
2021/01/31 01:43:52;;;;;;;9.97;6.53;;;;;;;-5.40;76.23;98310.05;512407;1102;114298;-63
2021/01/31 01:54:00;;;;;;;11.30;5.80;;;;;;;-5.52;76.32;98311.97;510578;1102;114067;-63
2021/01/31 02:04:04;;;;;;;14.15;7.00;;;;;;;-5.58;76.21;98321.48;510702;1102;115150;-62
2021/01/31 02:14:11;;;;;;;12.20;6.70;;;;;;;-5.94;76.87;98312.73;510686;1102;114805;-62
2021/01/31 02:25:01;;;;;;;11.68;6.62;;;;;;;-6.24;76.17;98317.52;510518;1102;115405;-64
2021/01/31 02:35:13;;;;;;;13.37;6.60;;;;;;;-6.63;76.48;98320.67;510481;1102;114558;-63
2021/01/31 02:45:27;;;;;;;12.50;6.10;;;;;;;-6.93;77.12;98321.95;510541;1102;114267;-63
2021/01/31 02:55:42;;;;;;;13.67;7.50;;;;;;;-6.98;77.30;98324.56;510630;1102;114458;-63
2021/01/31 03:05:50;;;;;;;12.03;7.10;;;;;;;-7.20;76.99;98322.28;510633;1102;114656;-63
2021/01/31 03:16:05;;;;;;;10.70;7.23;;;;;;;-7.45;77.55;98334.48;510702;1102;114173;-61
2021/01/31 03:26:15;;;;;;;13.60;5.87;;;;;;;-7.35;77.67;98341.16;510395;1102;115535;-60
2021/01/31 03:36:25;;;;;;;16.40;7.80;;;;;;;-7.20;77.45;98349.52;510690;1102;114549;-62
2021/01/31 03:46:35;;;;;;;11.70;6.27;;;;;;;-7.06;78.11;98350.19;510966;1101;114617;-62
2021/01/31 03:56:46;;;;;;;14.37;8.13;;;;;;;-6.93;78.08;98355.95;511114;1102;114089;-60
2021/01/31 04:06:53;;;;;;;10.30;5.85;;;;;;;-7.06;78.11;98365.50;510947;1101;114837;-61
2021/01/31 04:17:00;;;;;;;13.20;6.90;;;;;;;-7.05;77.91;98374.84;511022;1101;114220;-62
2021/01/31 04:27:05;;;;;;;16.83;7.87;;;;;;;-7.03;78.35;98392.70;510854;1102;114707;-61
2021/01/31 04:37:11;;;;;;;12.47;7.90;;;;;;;-6.93;78.05;98407.00;510755;1102;114681;-62
2021/01/31 04:47:25;;;;;;;16.63;8.70;;;;;;;-6.93;78.23;98408.73;510779;1102;115066;-61
2021/01/31 04:57:36;;;;;;;8.38;4.62;;;;;;;-6.97;78.56;98407.09;510579;1102;114222;-61
2021/01/31 05:07:47;;;;;;;11.93;7.47;;;;;;;-6.88;78.46;98416.34;510505;1102;114217;-61
2021/01/31 05:17:55;;;;;;;13.43;6.47;;;;;;;-6.69;78.46;98429.71;511015;1102;114144;-59
2021/01/31 05:28:03;;;;;;;8.65;6.00;;;;;;;-6.64;78.37;98433.03;511084;1102;115739;-61
2021/01/31 05:38:08;;;;;;;10.87;6.37;;;;;;;-6.66;77.92;98429.66;511168;1102;114392;-61
2021/01/31 05:48:36;;;;;;;13.05;5.85;;;;;;;-6.78;77.69;98449.38;511112;1102;115098;-61
2021/01/31 05:58:41;;;;;;;10.03;5.90;;;;;;;-6.78;77.75;98474.08;510858;1102;115235;-61
2021/01/31 06:08:49;;;;;;;10.30;6.23;;;;;;;-6.85;77.92;98477.55;510378;1102;114145;-61
2021/01/31 06:19:05;;;;;;;10.57;6.50;;;;;;;-6.86;78.02;98476.73;510976;1102;114405;-62
2021/01/31 06:29:12;;;;;;;;;;;;;;;-6.94;77.84;98475.95;510868;1101;114123;-63
2021/01/31 06:39:47;;;;;;;12.07;7.53;;;;;;;-7.09;77.67;98489.72;511066;1101;101413;-61
2021/01/31 06:50:01;;;;;;;12.75;8.20;;;;;;;-7.08;77.87;98509.27;511007;1102;114152;-61
2021/01/31 07:00:39;;;;;;;29.67;15.20;;;;;;;-7.16;77.28;98499.14;511105;1102;114146;-62
2021/01/31 07:11:16;;;;;;;31.90;19.15;;;;;;;-7.30;77.48;98503.54;510681;1101;114836;-61
2021/01/31 07:21:26;;;;;;;26.00;16.17;;;;;;;-5.83;77.66;98509.42;510856;1102;114377;-61
2021/01/31 07:31:43;;;;;;;30.77;17.90;;;;;;;-1.90;74.57;98510.05;511039;1102;114254;-62
2021/01/31 07:41:55;;;;;;;37.67;25.43;;;;;;;2.16;70.93;98524.77;510904;1102;114143;-63
2021/01/31 07:52:11;;;;;;;30.33;20.60;;;;;;;5.14;66.85;98522.23;510814;1102;114518;-62
2021/01/31 08:02:32;;;;;;;27.07;20.13;;;;;;;7.68;63.90;98527.95;510987;1102;114161;-61
2021/01/31 08:12:59;;;;;;;26.87;19.60;;;;;;;9.20;60.94;98531.14;510904;1102;114142;-62
2021/01/31 08:23:24;;;;;;;28.63;21.00;;;;;;;9.88;57.43;98528.58;510729;1102;115028;-63
2021/01/31 08:33:29;;;;;;;30.70;20.43;;;;;;;10.47;55.37;98544.97;510779;1102;114082;-62
2021/01/31 08:43:36;;;;;;;29.53;20.93;;;;;;;13.11;54.76;98539.31;511084;1101;114225;-62
2021/01/31 08:53:40;;;;;;;22.23;18.43;;;;;;;13.48;51.26;98540.39;511274;1102;114256;-64
2021/01/31 09:03:46;;;;;;;26.35;21.25;;;;;;;15.08;50.43;98541.01;510901;1102;114778;-63
2021/01/31 09:13:50;;;;;;;20.50;16.97;;;;;;;16.08;47.76;98539.78;510802;1101;114275;-63
2021/01/31 09:23:59;;;;;;;21.73;18.60;;;;;;;16.36;44.76;98540.38;510720;1102;114263;-62
2021/01/31 09:34:04;;;;;;;18.13;14.33;;;;;;;15.91;43.74;98558.27;510774;1102;114358;-62
2021/01/31 09:44:10;;;;;;;18.27;15.20;;;;;;;15.55;43.02;98556.54;510934;1102;115171;-61
2021/01/31 09:54:21;;;;;;;23.10;16.07;;;;;;;8.83;43.08;98576.63;510905;1102;114735;-62
2021/01/31 10:04:27;;;;;;;25.15;16.30;;;;;;;5.44;45.30;98572.56;510695;1102;114129;-62
2021/01/31 10:14:43;;;;;;;15.20;11.20;;;;;;;3.22;46.70;98577.59;510584;1102;114563;-60
2021/01/31 10:24:49;;;;;;;17.93;9.63;;;;;;;1.57;48.60;98582.60;512419;1102;114298;-61
2021/01/31 10:34:55;;;;;;;14.00;8.63;;;;;;;0.50;49.85;98577.44;502125;1102;10001875;-61
2021/01/31 10:45:06;;;;;;;9.33;6.73;;;;;;;0.04;50.88;98577.46;510826;1101;114197;-61
2021/01/31 10:55:12;;;;;;;13.00;8.33;;;;;;;-0.32;51.47;98565.02;510017;1102;10001679;-63
2021/01/31 11:05:16;;;;;;;12.20;7.30;;;;;;;-0.63;52.65;98576.41;510585;1102;114748;-63
2021/01/31 11:15:20;;;;;;;9.17;6.30;;;;;;;-0.84;52.52;98591.70;510397;1102;113977;-63
2021/01/31 11:25:24;;;;;;;10.40;7.63;;;;;;;-1.48;53.79;98590.31;510478;1102;114065;-64
2021/01/31 11:35:30;;;;;;;11.20;6.65;;;;;;;-1.63;54.63;98579.58;510552;1102;114440;-63
2021/01/31 11:45:37;;;;;;;10.17;6.97;;;;;;;-2.01;55.41;98576.42;510629;1101;115179;-63
2021/01/31 11:55:41;;;;;;;10.45;6.95;;;;;;;-2.00;55.90;98570.38;510233;1102;114021;-64
2021/01/31 12:05:45;;;;;;;7.87;5.57;;;;;;;-2.18;56.22;98567.47;510367;1102;114012;-63
2021/01/31 12:15:49;;;;;;;8.53;6.00;;;;;;;-2.23;56.75;98555.63;510708;1101;114007;-63
2021/01/31 12:25:54;;;;;;;;;;;;;;;-2.12;56.95;98549.27;510757;1101;114949;-63
2021/01/31 12:35:58;;;;;;;8.20;5.73;;;;;;;-1.96;57.50;98543.70;510561;1102;101394;-63
2021/01/31 12:46:03;;;;;;;9.10;7.40;;;;;;;-2.05;57.13;98539.64;510739;1102;114849;-60
2021/01/31 12:56:07;;;;;;;9.63;6.47;;;;;;;-2.09;58.02;98532.91;510457;1102;113742;-59
2021/01/31 13:06:11;;;;;;;11.03;6.93;;;;;;;-2.01;58.02;98530.97;510419;1102;113751;-59
2021/01/31 13:16:16;;;;;;;15.60;7.90;;;;;;;-2.18;58.01;98544.32;510364;1102;115588;-58
2021/01/31 13:26:21;;;;;;;12.63;8.83;;;;;;;-2.24;58.48;98548.80;510536;1102;114816;-60
2021/01/31 13:36:25;;;;;;;11.95;7.60;;;;;;;-2.12;58.86;98527.87;510494;1102;114433;-59
2021/01/31 13:46:29;;;;;;;9.33;6.00;;;;;;;-2.30;59.01;98540.36;510570;1101;114738;-59
2021/01/31 13:56:33;;;;;;;11.47;8.03;;;;;;;-2.42;59.31;98546.70;510502;1102;113800;-59
2021/01/31 14:06:39;;;;;;;13.20;8.23;;;;;;;-2.62;59.47;98547.23;510447;1101;114380;-59
2021/01/31 14:16:43;;;;;;;;;;;;;;;-2.72;60.25;98543.22;510814;1102;114407;-59
2021/01/31 14:26:47;;;;;;;11.27;7.97;;;;;;;-2.89;59.83;98546.23;510682;1101;99897;-58
2021/01/31 14:36:51;;;;;;;15.50;10.27;;;;;;;-3.12;60.24;98550.22;510343;1102;113761;-58
2021/01/31 14:46:58;;;;;;;19.97;11.10;;;;;;;-3.41;60.96;98542.35;510463;1101;114725;-59
2021/01/31 14:57:02;;;;;;;11.60;7.10;;;;;;;-3.69;61.20;98537.87;510503;1102;114506;-58
2021/01/31 15:07:09;;;;;;;19.70;11.57;;;;;;;-3.90;62.20;98535.80;510667;1102;113946;-60
2021/01/31 15:17:13;;;;;;;25.97;14.77;;;;;;;-4.11;62.09;98527.68;510354;1100;114263;-60
2021/01/31 15:27:17;;;;;;;28.33;15.17;;;;;;;-4.42;61.90;98525.78;510635;1102;114112;-60
2021/01/31 15:37:21;;;;;;;33.23;19.20;;;;;;;-4.84;63.85;98529.97;510466;1102;114407;-59
2021/01/31 15:47:25;;;;;;;51.17;24.60;;;;;;;-5.18;63.13;98527.18;510468;1102;114170;-58
2021/01/31 15:57:29;;;;;;;61.80;29.30;;;;;;;-5.55;63.64;98524.33;510242;1102;115153;-59
2021/01/31 16:07:38;;;;;;;57.40;30.90;;;;;;;-5.79;64.95;98526.39;510476;1102;114894;-60
2021/01/31 16:17:42;;;;;;;58.47;32.13;;;;;;;-6.08;65.25;98525.14;510575;1101;114575;-60
2021/01/31 16:27:46;;;;;;;74.27;36.20;;;;;;;-6.38;66.35;98534.05;510745;1102;114417;-59
2021/01/31 16:37:54;;;;;;;112.20;54.15;;;;;;;-6.65;66.77;98539.46;510406;1101;115031;-59
2021/01/31 16:47:58;;;;;;;108.12;53.73;;;;;;;-6.92;66.92;98541.45;510650;1102;114628;-60
2021/01/31 16:58:02;;;;;;;86.83;42.30;;;;;;;-7.23;67.15;98528.11;510495;1102;115013;-60
2021/01/31 17:08:09;;;;;;;76.17;41.40;;;;;;;-7.48;67.38;98518.12;510396;1102;114641;-60
2021/01/31 17:18:13;;;;;;;92.73;46.87;;;;;;;-7.77;67.46;98529.41;510710;1102;114408;-60
2021/01/31 17:28:21;;;;;;;116.93;61.60;;;;;;;-8.00;69.10;98521.89;510563;1101;115272;-59
2021/01/31 17:38:28;;;;;;;103.53;54.00;;;;;;;-8.11;68.57;98520.25;510630;1101;114898;-60
2021/01/31 17:48:32;;;;;;;91.80;51.40;;;;;;;-8.18;69.17;98518.61;510177;1102;115033;-60
2021/01/31 17:58:36;;;;;;;90.17;45.77;;;;;;;-8.24;68.93;98514.40;510570;1102;114608;-60
2021/01/31 18:08:40;;;;;;;85.00;45.80;;;;;;;-8.32;68.66;98504.22;510477;1101;114158;-60
2021/01/31 18:18:45;;;;;;;97.83;49.57;;;;;;;-8.46;69.60;98508.55;514808;1101;114203;-59
2021/01/31 18:28:49;;;;;;;98.42;53.85;;;;;;;-8.62;69.73;98493.38;510588;1102;114777;-60
2021/01/31 18:38:53;;;;;;;111.37;56.63;;;;;;;-8.82;69.63;98496.01;510456;1102;114457;-61
2021/01/31 18:48:57;;;;;;;83.03;47.77;;;;;;;-9.05;69.46;98493.52;510809;1101;115503;-73
2021/01/31 18:59:02;;;;;;;108.83;49.67;;;;;;;-9.16;70.24;98496.92;510443;1102;114316;-69
2021/01/31 19:09:06;;;;;;;117.70;55.80;;;;;;;-9.26;70.35;98481.70;510559;1102;115948;-66
2021/01/31 19:19:10;;;;;;;95.03;49.70;;;;;;;-9.33;70.52;98480.86;510470;1102;115056;-68
2021/01/31 19:29:18;;;;;;;80.83;42.27;;;;;;;-9.41;70.96;98474.94;510821;1102;115258;-69
2021/01/31 19:39:22;;;;;;;83.80;44.20;;;;;;;-9.39;71.07;98474.09;513509;1093;115466;-66
2021/01/31 19:49:26;;;;;;;88.83;48.13;;;;;;;-9.34;71.06;98485.09;511014;1102;114662;-69
2021/01/31 19:59:30;;;;;;;78.63;38.77;;;;;;;-9.33;72.19;98488.49;510607;1101;115432;-65
2021/01/31 20:09:34;;;;;;;48.42;30.12;;;;;;;-9.36;71.89;98502.05;510634;1099;115019;-61
2021/01/31 20:19:38;;;;;;;67.73;31.97;;;;;;;-9.26;72.39;98496.95;510618;1102;115892;-61
2021/01/31 20:29:42;;;;;;;65.35;32.05;;;;;;;-9.16;73.16;98485.92;510640;1102;114871;-61
2021/01/31 20:39:46;;;;;;;60.43;32.83;;;;;;;-9.22;71.94;98491.86;510584;1102;115014;-61
2021/01/31 20:49:49;;;;;;;64.30;32.93;;;;;;;-9.32;72.29;98485.09;510706;1102;114116;-61
2021/01/31 20:59:55;;;;;;;56.90;30.80;;;;;;;-9.46;71.49;98482.56;510664;1102;114261;-61
2021/01/31 21:09:59;;;;;;;65.42;34.73;;;;;;;-9.72;70.45;98478.34;510782;1102;114564;-61
2021/01/31 21:20:06;;;;;;;63.73;32.88;;;;;;;-9.76;71.98;98463.93;510484;1102;114132;-61
2021/01/31 21:30:15;;;;;;;48.47;25.10;;;;;;;-9.80;72.15;98452.09;510832;1102;114966;-61
2021/01/31 21:40:22;;;;;;;55.75;25.20;;;;;;;-9.83;72.58;98452.09;510543;1102;115288;-61
2021/01/31 21:50:29;;;;;;;44.07;22.97;;;;;;;-9.87;72.67;98443.63;510580;1102;115328;-61
2021/01/31 22:00:34;;;;;;;39.77;19.93;;;;;;;-9.92;73.65;98448.70;510478;1101;114448;-62
2021/01/31 22:10:39;;;;;;;49.73;24.90;;;;;;;-9.85;74.12;98452.08;510643;1102;116111;-60
2021/01/31 22:20:43;;;;;;;43.58;20.70;;;;;;;-9.93;73.27;98447.01;510597;1101;115527;-60
2021/01/31 22:30:47;;;;;;;35.77;18.80;;;;;;;-9.90;73.91;98447.00;510433;1102;114122;-60
2021/01/31 22:40:52;;;;;;;49.00;24.85;;;;;;;-9.94;74.17;98458.02;510454;1102;115015;-60
2021/01/31 22:50:55;;;;;;;;;;;;;;;-10.03;74.22;98460.55;510504;1102;114669;-60
2021/01/31 23:00:59;;;;;;;52.00;27.40;;;;;;;-10.21;74.32;98463.91;510369;1101;101434;-60
2021/01/31 23:11:02;;;;;;;;;;;;;;;-10.36;74.37;98457.11;509912;1102;115170;-61
2021/01/31 23:21:06;;;;;;;47.17;23.20;;;;;;;-10.54;74.14;98450.33;510606;1102;100731;-61
2021/01/31 23:31:10;;;;;;;41.05;23.75;;;;;;;-10.69;74.02;98449.45;510439;1102;114966;-60
2021/01/31 23:41:15;;;;;;;50.30;26.30;;;;;;;-10.98;73.68;98440.89;510669;1102;114983;-61
2021/01/31 23:51:18;;;;;;;50.78;26.30;;;;;;;-10.98;74.95;98442.56;510119;1101;116134;-61
